Strona główna
Zdjęcia satelitarne 15-dni prognozyKlimatMeteorologia morska Cyklony Błyskawica LotniskoFAQ Gazetka O
Pogoda : Europa Afryka Ameryka Północna Ameryka Południowa Azja Australia-Oceania Inny
Języki Kontakt

Kraków, Polska

Balice

Szerokość geograficzna: 50-05N, Długość geograficzna: 019-48E, wysokość: 237 m


METAR: EPKK 250230Z 09008KT 9999 BKN017 01/M02 Q1024
TAF: EPKK 242330Z 2500/2524 08010KT 9999 BKN020 TEMPO 2500/2507 BKN010

czas: 04:45 (02:45 UTC)

Aktualna obserwacja pogody

Raport powstał 15 minut temu, godzina 02:30 UTC
Wiatr 8 kt od wschód
Temperatura 1°C
Wilgotność 80%
Ciśnienie 1024 hPa
Widzialność 10 km lub więcej
Przerywane chmury na wysokości 1700 ft

Jednostka miary

Prognoza

Raport powstał 3 godziny i 15 minut temu, godzina 23:30 UTC
Prognoza ważna od 25 godzina 00 UTC do 25 godzina 24 UTC
Wiatr 10 kt od wschód
Widzialność 10 km lub więcej
Przerywane chmury na wysokości 2000 ft
Przejściowo
od 25 godzina 00 UTC do 25 godzina 07 UTC
Przerywane chmury na wysokości 1000 ft
Informacje na tej stronie internetowej podlegają klauzuli o wyłączeniu odpowiedzialności
Pogoda : Europa Afryka Ameryka Północna Ameryka Południowa Azja Australia-Oceania Inny
Zdjęcia satelitarne 15-dni prognozyKlimatMeteorologia morska Cyklony Błyskawica LotniskoFAQ Języki Kontakt Gazetka O